createdAt,value
2023-02-18T00:02:03.525Z,7.80
2023-02-18T00:04:33.017Z,7.60
2023-02-18T00:07:02.316Z,7.80
2023-02-18T00:09:30.910Z,7.50
2023-02-18T00:11:59.798Z,8.30
2023-02-18T00:14:28.953Z,7.00
2023-02-18T00:16:57.994Z,7.40
2023-02-18T00:19:26.664Z,10.00
2023-02-18T00:21:55.607Z,8.80
2023-02-18T00:24:24.664Z,7.60
2023-02-18T00:26:54.010Z,8.80
2023-02-18T00:29:22.759Z,8.10
2023-02-18T00:31:51.633Z,7.40
2023-02-18T00:34:20.499Z,8.40
2023-02-18T00:36:49.343Z,8.20
2023-02-18T00:39:18.329Z,8.00
2023-02-18T00:41:47.149Z,8.90
2023-02-18T00:44:15.995Z,10.40
2023-02-18T00:46:45.029Z,10.20
2023-02-18T00:49:13.639Z,8.10
2023-02-18T00:51:42.610Z,6.80
2023-02-18T00:54:11.421Z,7.50
2023-02-18T00:56:39.967Z,6.90
2023-02-18T00:59:08.867Z,6.90
2023-02-18T01:01:37.564Z,6.90
2023-02-18T01:04:06.794Z,6.80
2023-02-18T01:06:35.617Z,7.20
2023-02-18T01:09:06.233Z,8.80
2023-02-18T01:11:35.338Z,7.40
2023-02-18T01:14:04.263Z,8.50
2023-02-18T01:16:33.397Z,8.40
2023-02-18T01:19:02.372Z,7.80
2023-02-18T01:21:31.215Z,8.10
2023-02-18T01:24:00.160Z,8.20
2023-02-18T01:26:28.935Z,8.10
2023-02-18T01:28:57.852Z,8.30
2023-02-18T01:31:26.549Z,8.20
2023-02-18T01:33:55.512Z,8.10
2023-02-18T01:36:24.545Z,7.80
2023-02-18T01:38:54.334Z,8.50
2023-02-18T01:41:23.543Z,8.80
2023-02-18T01:44:16.758Z,8.70
2023-02-18T01:46:46.130Z,8.60
2023-02-18T01:49:21.460Z,8.30
2023-02-18T01:51:57.949Z,7.70
2023-02-18T01:54:32.269Z,8.60
2023-02-18T01:57:08.078Z,8.50
2023-02-18T01:59:50.724Z,8.10
2023-02-18T02:02:22.934Z,8.20
2023-02-18T02:04:52.792Z,8.10
2023-02-18T02:07:24.045Z,7.40
2023-02-18T02:09:56.821Z,7.80
2023-02-18T02:12:55.546Z,8.00
2023-02-18T02:15:50.367Z,7.90
2023-02-18T02:18:27.532Z,7.40
2023-02-18T02:21:27.080Z,7.20
2023-02-18T02:24:20.227Z,7.70
2023-02-18T02:27:07.323Z,7.30
2023-02-18T02:30:24.470Z,7.50
2023-02-18T02:33:25.588Z,7.10
2023-02-18T02:36:17.258Z,7.70
2023-02-18T02:39:27.851Z,7.20
2023-02-18T02:42:18.830Z,7.20
2023-02-18T02:44:57.965Z,7.30
2023-02-18T02:47:33.166Z,6.00
2023-02-18T02:50:09.558Z,6.30
2023-02-18T02:52:45.460Z,6.30
2023-02-18T02:55:15.495Z,6.50
2023-02-18T02:57:46.818Z,6.50
2023-02-18T03:00:19.108Z,5.60
2023-02-18T03:03:07.096Z,6.10
2023-02-18T03:05:45.111Z,6.30
2023-02-18T03:08:39.829Z,6.40
2023-02-18T03:11:15.267Z,6.40
2023-02-18T03:14:27.748Z,6.80
2023-02-18T03:17:13.276Z,6.10
2023-02-18T03:19:51.025Z,6.00
2023-02-18T03:22:19.794Z,6.20
2023-02-18T03:24:52.126Z,6.50
2023-02-18T03:27:23.986Z,6.00
2023-02-18T03:30:16.251Z,6.00
2023-02-18T03:32:48.075Z,6.20
2023-02-18T03:35:18.974Z,6.50
2023-02-18T03:38:03.333Z,6.60
2023-02-18T03:40:32.825Z,6.80
2023-02-18T03:43:01.966Z,6.40
2023-02-18T03:45:31.281Z,6.40
2023-02-18T03:48:00.221Z,7.70
2023-02-18T03:50:29.049Z,7.50
2023-02-18T03:52:57.945Z,7.50
2023-02-18T03:55:27.034Z,7.60
2023-02-18T03:57:56.429Z,7.80
2023-02-18T04:00:25.621Z,7.90
2023-02-18T04:02:54.808Z,8.50
2023-02-18T04:05:24.513Z,8.10
2023-02-18T04:07:53.338Z,7.40
2023-02-18T04:10:23.365Z,8.00
2023-02-18T04:12:52.362Z,8.40
2023-02-18T04:15:21.290Z,8.50
2023-02-18T04:17:50.650Z,8.30
2023-02-18T04:20:20.446Z,7.20
2023-02-18T04:22:49.579Z,7.10
2023-02-18T04:25:18.513Z,8.00
2023-02-18T04:27:47.428Z,7.90
2023-02-18T04:30:18.784Z,8.20
2023-02-18T04:32:47.726Z,7.80
2023-02-18T04:35:16.806Z,7.30
2023-02-18T04:37:45.490Z,7.00
2023-02-18T04:40:15.440Z,7.00
2023-02-18T04:42:44.149Z,8.40
2023-02-18T04:45:13.210Z,7.90
2023-02-18T04:47:41.937Z,7.20
2023-02-18T04:50:11.990Z,7.70
2023-02-18T04:52:40.847Z,7.80
2023-02-18T04:55:09.766Z,8.20
2023-02-18T04:57:38.902Z,9.20
2023-02-18T05:00:11.650Z,8.90
2023-02-18T05:02:40.465Z,8.50
2023-02-18T05:05:09.975Z,8.40
2023-02-18T05:07:39.267Z,8.30
2023-02-18T05:10:09.484Z,6.90
2023-02-18T05:12:38.301Z,7.00
2023-02-18T05:15:08.144Z,6.90
2023-02-18T05:17:36.673Z,7.20
2023-02-18T05:20:08.830Z,7.40
2023-02-18T05:22:38.960Z,6.80
2023-02-18T05:25:08.338Z,7.20
2023-02-18T05:27:37.289Z,7.40
2023-02-18T05:30:07.258Z,7.10
2023-02-18T05:32:36.400Z,7.20
2023-02-18T05:35:06.252Z,7.00
2023-02-18T05:37:35.581Z,7.20
2023-02-18T05:40:05.520Z,7.40
2023-02-18T05:42:34.235Z,7.40
2023-02-18T05:45:03.411Z,6.90
2023-02-18T05:47:32.433Z,6.80
2023-02-18T05:50:01.454Z,7.30
2023-02-18T05:52:30.195Z,7.60
2023-02-18T05:54:59.348Z,7.10
2023-02-18T05:57:28.822Z,7.00
2023-02-18T06:00:00.094Z,6.50
2023-02-18T06:02:29.344Z,9.00
2023-02-18T06:04:57.978Z,6.40
2023-02-18T06:07:26.942Z,7.00
2023-02-18T06:09:55.894Z,6.50
2023-02-18T06:12:25.354Z,7.60
2023-02-18T06:14:54.132Z,7.00
2023-02-18T06:17:23.108Z,11.20
2023-02-18T06:19:52.323Z,9.00
2023-02-18T06:22:21.114Z,8.60
2023-02-18T06:24:50.409Z,7.30
2023-02-18T06:27:19.580Z,7.40
2023-02-18T06:29:48.557Z,7.30
2023-02-18T06:32:17.417Z,7.70
2023-02-18T06:34:46.499Z,7.40
2023-02-18T06:37:16.459Z,8.30
2023-02-18T06:39:45.455Z,8.40
2023-02-18T06:42:14.521Z,6.00
2023-02-18T06:44:43.254Z,6.00
2023-02-18T06:47:12.105Z,7.20
2023-02-18T06:49:41.401Z,5.80
2023-02-18T06:52:10.304Z,5.50
2023-02-18T06:54:39.635Z,5.40
2023-02-18T06:57:08.460Z,5.30
2023-02-18T06:59:37.850Z,5.50
2023-02-18T07:02:06.976Z,6.20
2023-02-18T07:04:35.988Z,6.70
2023-02-18T07:07:05.003Z,6.00
2023-02-18T07:09:34.213Z,5.50
2023-02-18T07:12:03.350Z,5.90
2023-02-18T07:14:32.688Z,6.30
2023-02-18T07:17:01.723Z,6.60
2023-02-18T07:19:30.785Z,7.00
2023-02-18T07:21:59.519Z,6.10
2023-02-18T07:24:28.318Z,9.30
2023-02-18T07:26:57.640Z,9.50
2023-02-18T07:29:26.582Z,6.00
2023-02-18T07:31:55.740Z,12.90
2023-02-18T07:34:24.881Z,8.30
2023-02-18T07:36:53.734Z,8.00
2023-02-18T07:39:22.455Z,11.10
2023-02-18T07:41:51.473Z,5.60
2023-02-18T07:44:20.339Z,6.40
2023-02-18T07:46:49.481Z,6.20
2023-02-18T07:49:18.956Z,22.50
2023-02-18T07:51:49.735Z,8.70
2023-02-18T07:54:18.990Z,11.00
2023-02-18T07:56:48.404Z,6.00
2023-02-18T07:59:17.761Z,5.90
2023-02-18T08:01:47.852Z,6.70
2023-02-18T08:04:17.044Z,10.30
2023-02-18T08:06:49.141Z,6.20
2023-02-18T08:09:18.653Z,6.80
2023-02-18T08:11:47.555Z,7.70
2023-02-18T08:14:17.947Z,7.50
2023-02-18T08:16:47.521Z,6.50
2023-02-18T08:19:16.701Z,7.50
2023-02-18T08:21:46.682Z,6.10
2023-02-18T08:24:15.615Z,8.20
2023-02-18T08:26:59.392Z,5.50
2023-02-18T08:29:30.238Z,5.60
2023-02-18T08:32:00.083Z,6.00
2023-02-18T08:34:30.340Z,8.60
2023-02-18T08:36:59.864Z,5.80
2023-02-18T08:39:29.036Z,9.70
2023-02-18T08:41:57.820Z,5.20
2023-02-18T08:44:28.002Z,5.80
2023-02-18T08:46:57.489Z,5.50
2023-02-18T08:49:26.469Z,6.00
2023-02-18T08:51:56.014Z,5.30
2023-02-18T08:54:25.371Z,5.40
2023-02-18T08:56:58.418Z,5.40
2023-02-18T08:59:28.420Z,5.60
2023-02-18T09:01:57.870Z,5.50
2023-02-18T09:04:27.343Z,5.90
2023-02-18T09:06:57.491Z,5.30
2023-02-18T09:09:26.670Z,6.00
2023-02-18T09:11:56.582Z,4.90
2023-02-18T09:14:25.580Z,5.00
2023-02-18T09:16:55.205Z,5.20
2023-02-18T09:19:25.311Z,5.40
2023-02-18T09:21:54.345Z,5.80
2023-02-18T09:24:25.730Z,5.10
2023-02-18T09:26:56.098Z,5.00
2023-02-18T09:29:25.286Z,5.20
2023-02-18T09:31:54.622Z,5.40
2023-02-18T09:34:23.846Z,11.20
2023-02-18T09:36:53.254Z,5.10
2023-02-18T09:39:22.563Z,5.10
2023-02-18T09:41:58.523Z,5.10
2023-02-18T09:44:45.819Z,5.20
2023-02-18T09:47:17.468Z,5.10
2023-02-18T09:49:55.397Z,9.30
2023-02-18T09:52:34.425Z,7.90
2023-02-18T09:55:21.344Z,6.90
2023-02-18T09:57:54.116Z,5.80
2023-02-18T10:00:29.364Z,5.50
2023-02-18T10:03:20.540Z,4.80
2023-02-18T10:05:58.509Z,5.10
2023-02-18T10:08:37.487Z,6.60
2023-02-18T10:11:17.404Z,7.70
2023-02-18T10:13:46.994Z,8.30
2023-02-18T10:16:19.644Z,8.40
2023-02-18T10:18:54.855Z,8.20
2023-02-18T10:21:37.352Z,7.60
2023-02-18T10:24:29.655Z,7.10
2023-02-18T10:27:01.146Z,6.70
2023-02-18T10:29:32.967Z,6.40
2023-02-18T10:32:21.308Z,6.40
2023-02-18T10:35:18.432Z,7.10
2023-02-18T10:38:03.540Z,6.50
2023-02-18T10:41:06.404Z,6.40
2023-02-18T10:43:55.678Z,7.00
2023-02-18T10:46:58.042Z,6.10
2023-02-18T10:49:45.760Z,5.60
2023-02-18T10:52:17.998Z,5.30
2023-02-18T10:54:59.225Z,5.80
2023-02-18T10:57:28.764Z,8.30
2023-02-18T11:00:02.444Z,5.60
2023-02-18T11:02:33.436Z,10.90
2023-02-18T11:05:17.284Z,7.30
2023-02-18T11:07:53.355Z,6.40
2023-02-18T11:10:31.685Z,6.20
2023-02-18T11:13:08.392Z,7.00
2023-02-18T11:15:38.504Z,6.90
2023-02-18T11:18:41.199Z,5.20
2023-02-18T11:21:27.575Z,6.90
2023-02-18T11:23:58.620Z,17.30
2023-02-18T11:26:33.962Z,8.80
2023-02-18T11:29:25.054Z,7.90
2023-02-18T11:31:57.831Z,14.20
2023-02-18T11:34:32.386Z,6.90
2023-02-18T11:37:19.175Z,4.70
2023-02-18T11:39:52.563Z,5.20
2023-02-18T11:42:25.391Z,5.60
2023-02-18T11:44:58.196Z,5.40
2023-02-18T11:47:36.148Z,5.90
2023-02-18T11:50:11.835Z,5.90
2023-02-18T11:52:52.015Z,6.10
2023-02-18T11:55:25.357Z,5.50
2023-02-18T11:57:59.896Z,4.80
2023-02-18T12:00:43.357Z,5.00
2023-02-18T12:03:15.286Z,6.20
2023-02-18T12:05:46.431Z,4.80
2023-02-18T12:08:25.975Z,5.90
2023-02-18T12:11:07.710Z,4.20
2023-02-18T12:13:54.322Z,7.80
2023-02-18T12:16:23.894Z,3.80
2023-02-18T12:19:19.764Z,3.50
2023-02-18T12:22:13.821Z,4.40
2023-02-18T12:25:14.714Z,3.60
2023-02-18T12:27:49.393Z,3.70
2023-02-18T12:30:53.087Z,4.50
2023-02-18T12:33:36.032Z,5.70
2023-02-18T12:36:23.462Z,3.80
2023-02-18T12:39:18.895Z,4.60
2023-02-18T12:42:23.168Z,4.50
2023-02-18T12:45:16.511Z,4.60
2023-02-18T12:48:04.368Z,4.10
2023-02-18T12:50:36.210Z,4.40
2023-02-18T12:53:59.647Z,4.10
2023-02-18T12:56:59.180Z,4.70
2023-02-18T12:59:54.619Z,4.40
2023-02-18T13:02:38.775Z,4.40
2023-02-18T13:05:23.681Z,5.30
2023-02-18T13:08:37.708Z,3.80
2023-02-18T13:11:55.066Z,5.00
2023-02-18T13:14:32.563Z,3.60
2023-02-18T13:17:06.105Z,5.10
2023-02-18T13:19:47.102Z,4.40
2023-02-18T13:22:19.185Z,3.90
2023-02-18T13:24:50.702Z,3.20
2023-02-18T13:27:49.144Z,3.60
2023-02-18T13:30:18.833Z,4.10
2023-02-18T13:32:54.427Z,3.80
2023-02-18T13:35:46.952Z,9.30
2023-02-18T13:38:41.087Z,5.90
2023-02-18T13:41:10.570Z,3.70
2023-02-18T13:43:40.451Z,5.40
2023-02-18T13:46:15.427Z,4.20
2023-02-18T13:49:16.249Z,5.10
2023-02-18T13:51:51.991Z,5.70
2023-02-18T13:54:45.332Z,5.10
2023-02-18T13:57:18.048Z,5.20
2023-02-18T13:59:58.165Z,6.60
2023-02-18T14:02:27.601Z,7.80
2023-02-18T14:04:59.249Z,4.40
2023-02-18T14:07:39.954Z,11.00
2023-02-18T14:10:17.704Z,11.50
2023-02-18T14:12:59.262Z,5.10
2023-02-18T14:15:29.004Z,4.80
2023-02-18T14:18:17.037Z,9.80
2023-02-18T14:20:53.345Z,6.80
2023-02-18T14:23:23.025Z,5.80
2023-02-18T14:26:05.374Z,4.40
2023-02-18T14:28:34.752Z,4.30
2023-02-18T14:31:13.745Z,4.80
2023-02-18T14:34:06.901Z,5.20
2023-02-18T14:36:47.888Z,4.10
2023-02-18T14:39:26.068Z,4.50
2023-02-18T14:42:25.731Z,6.30
2023-02-18T14:45:32.006Z,7.60
2023-02-18T14:48:20.514Z,6.10
2023-02-18T14:50:51.170Z,5.40
2023-02-18T14:53:24.292Z,8.00
2023-02-18T14:55:59.141Z,8.90
2023-02-18T14:58:39.017Z,4.80
2023-02-18T15:01:19.747Z,12.80
2023-02-18T15:03:55.004Z,6.60
2023-02-18T15:06:31.293Z,6.00
2023-02-18T15:09:02.314Z,6.00
2023-02-18T15:11:41.744Z,5.40
2023-02-18T15:14:44.002Z,5.50
2023-02-18T15:17:32.349Z,4.70
2023-02-18T15:20:07.107Z,4.50
2023-02-18T15:22:36.449Z,5.30
2023-02-18T15:25:05.995Z,5.50
2023-02-18T15:27:44.941Z,5.60
2023-02-18T15:30:19.683Z,5.00
2023-02-18T15:32:54.911Z,4.80
2023-02-18T15:35:30.331Z,5.70
2023-02-18T15:38:02.123Z,5.40
2023-02-18T15:40:34.797Z,4.80
2023-02-18T15:43:07.118Z,4.70
2023-02-18T15:45:42.429Z,4.90
2023-02-18T15:48:36.463Z,5.60
2023-02-18T15:51:16.962Z,5.40
2023-02-18T15:53:50.792Z,5.30
2023-02-18T15:56:40.986Z,5.40
2023-02-18T15:59:19.488Z,5.80
2023-02-18T16:01:51.705Z,7.50
2023-02-18T16:04:22.721Z,6.70
2023-02-18T16:06:54.502Z,7.10
2023-02-18T16:09:27.103Z,8.40
2023-02-18T16:12:02.692Z,7.40
2023-02-18T16:14:43.231Z,6.20
2023-02-18T16:17:22.641Z,5.10
2023-02-18T16:20:03.947Z,5.00
2023-02-18T16:22:35.911Z,5.10
2023-02-18T16:25:08.202Z,4.70
2023-02-18T16:27:48.739Z,4.80
2023-02-18T16:30:27.544Z,4.90
2023-02-18T16:32:58.207Z,4.90
2023-02-18T16:35:32.812Z,5.10
2023-02-18T16:38:03.778Z,4.50
2023-02-18T16:40:34.488Z,5.10
2023-02-18T16:43:15.929Z,5.80
2023-02-18T16:45:49.787Z,8.00
2023-02-18T16:48:25.546Z,13.90
2023-02-18T16:50:55.041Z,7.50
2023-02-18T16:53:24.130Z,8.40
2023-02-18T16:55:52.917Z,18.10
2023-02-18T16:58:21.923Z,25.90
2023-02-18T17:00:53.213Z,13.90
2023-02-18T17:03:22.761Z,14.40
2023-02-18T17:05:52.103Z,11.00
2023-02-18T17:08:23.555Z,11.90
2023-02-18T17:10:56.397Z,7.50
2023-02-18T17:13:28.268Z,14.30
2023-02-18T17:15:59.570Z,12.60
2023-02-18T17:18:29.331Z,21.40
2023-02-18T17:20:58.905Z,22.60
2023-02-18T17:23:29.245Z,14.20
2023-02-18T17:25:58.914Z,16.80
2023-02-18T17:28:28.737Z,14.90
2023-02-18T17:30:59.512Z,11.00
2023-02-18T17:33:28.973Z,5.40
2023-02-18T17:35:58.780Z,6.40
2023-02-18T17:38:28.277Z,12.60
2023-02-18T17:40:57.447Z,9.80
2023-02-18T17:43:26.841Z,6.80
2023-02-18T17:45:58.922Z,5.70
2023-02-18T17:48:29.172Z,6.40
2023-02-18T17:50:58.963Z,6.60
2023-02-18T17:53:28.941Z,7.80
2023-02-18T17:55:57.865Z,7.40
2023-02-18T17:58:27.110Z,7.00
2023-02-18T18:00:58.315Z,6.60
2023-02-18T18:03:27.740Z,7.00
2023-02-18T18:05:58.179Z,7.80
2023-02-18T18:08:27.477Z,9.40
2023-02-18T18:11:00.143Z,9.80
2023-02-18T18:13:35.245Z,9.20
2023-02-18T18:16:05.450Z,9.10
2023-02-18T18:18:34.679Z,8.10
2023-02-18T18:21:05.190Z,9.00
2023-02-18T18:23:34.572Z,8.60
2023-02-18T18:26:03.975Z,10.80
2023-02-18T18:28:33.426Z,12.50
2023-02-18T18:31:02.984Z,12.70
2023-02-18T18:33:35.018Z,15.40
2023-02-18T18:36:05.124Z,18.40
2023-02-18T18:38:36.365Z,17.20
2023-02-18T18:41:06.025Z,53.70
2023-02-18T18:43:38.456Z,27.50
2023-02-18T18:46:08.454Z,12.60
2023-02-18T18:48:39.316Z,12.30
2023-02-18T18:51:17.121Z,13.50
2023-02-18T18:53:46.631Z,9.50
2023-02-18T18:56:16.068Z,7.70
2023-02-18T18:58:45.695Z,4.70
2023-02-18T19:01:23.146Z,4.00
2023-02-18T19:03:53.004Z,4.70
2023-02-18T19:06:23.737Z,9.40
2023-02-18T19:08:53.731Z,21.50
2023-02-18T19:11:23.600Z,23.60
2023-02-18T19:13:53.370Z,31.60
2023-02-18T19:16:34.852Z,30.90
2023-02-18T19:19:04.971Z,20.20
2023-02-18T19:21:35.778Z,19.10
2023-02-18T19:24:05.046Z,12.10
2023-02-18T19:26:35.408Z,7.60
2023-02-18T19:29:04.584Z,5.20
2023-02-18T19:31:34.013Z,12.20
2023-02-18T19:34:04.347Z,15.20
2023-02-18T19:36:34.593Z,17.30
2023-02-18T19:39:06.313Z,18.60
2023-02-18T19:41:37.747Z,8.70
2023-02-18T19:44:07.086Z,4.40
2023-02-18T19:46:36.622Z,8.00
2023-02-18T19:49:06.640Z,18.50
2023-02-18T19:51:36.092Z,15.20
2023-02-18T19:54:06.121Z,5.20
2023-02-18T19:56:37.437Z,4.60
2023-02-18T19:59:07.871Z,4.20
2023-02-18T20:01:37.697Z,5.00
2023-02-18T20:04:06.709Z,6.90
2023-02-18T20:06:35.671Z,6.10
2023-02-18T20:09:05.382Z,12.30
2023-02-18T20:11:34.680Z,12.20
2023-02-18T20:14:04.118Z,20.80
2023-02-18T20:16:33.476Z,14.40
2023-02-18T20:19:02.641Z,28.40
2023-02-18T20:21:32.753Z,15.80
2023-02-18T20:24:02.070Z,13.20
2023-02-18T20:26:31.114Z,12.70
2023-02-18T20:29:00.783Z,11.30
2023-02-18T20:31:30.022Z,9.50
2023-02-18T20:34:01.016Z,9.60
2023-02-18T20:36:30.205Z,8.80
2023-02-18T20:39:07.672Z,8.80
2023-02-18T20:41:45.376Z,8.10
2023-02-18T20:44:16.298Z,7.70
2023-02-18T20:46:46.883Z,7.50
2023-02-18T20:49:19.286Z,8.00
2023-02-18T20:51:50.155Z,6.00
2023-02-18T20:54:20.517Z,6.10
2023-02-18T20:56:51.254Z,6.00
2023-02-18T20:59:22.695Z,10.30
2023-02-18T21:01:51.818Z,17.50
2023-02-18T21:04:21.848Z,15.40
2023-02-18T21:06:51.470Z,11.60
2023-02-18T21:09:22.017Z,28.10
2023-02-18T21:11:52.464Z,24.70
2023-02-18T21:14:22.848Z,18.00
2023-02-18T21:16:52.021Z,18.70
2023-02-18T21:19:21.223Z,14.10
2023-02-18T21:21:50.440Z,16.50
2023-02-18T21:24:20.408Z,9.40
2023-02-18T21:26:50.029Z,11.80
2023-02-18T21:29:19.370Z,11.40
2023-02-18T21:31:48.535Z,10.30
2023-02-18T21:34:17.804Z,11.30
2023-02-18T21:36:47.560Z,17.90
2023-02-18T21:39:17.690Z,21.00
2023-02-18T21:41:47.212Z,17.70
2023-02-18T21:44:16.323Z,10.80
2023-02-18T21:46:45.364Z,6.70
2023-02-18T21:49:16.376Z,8.00
2023-02-18T21:51:57.310Z,7.90
2023-02-18T21:54:30.517Z,6.30
2023-02-18T21:57:01.524Z,7.70
2023-02-18T21:59:31.555Z,5.90
2023-02-18T22:02:01.077Z,11.20
2023-02-18T22:04:32.932Z,10.80
2023-02-18T22:07:03.781Z,9.80
2023-02-18T22:09:32.830Z,9.30
2023-02-18T22:12:02.028Z,6.20
2023-02-18T22:14:31.592Z,7.10
2023-02-18T22:17:00.985Z,7.50
2023-02-18T22:19:30.605Z,12.90
2023-02-18T22:22:00.897Z,10.50
2023-02-18T22:24:30.111Z,11.80
2023-02-18T22:27:01.923Z,15.40
2023-02-18T22:29:32.709Z,17.60
2023-02-18T22:32:02.572Z,15.00
2023-02-18T22:34:31.888Z,16.90
2023-02-18T22:37:01.290Z,13.40
2023-02-18T22:39:30.446Z,11.30
2023-02-18T22:41:59.262Z,9.60
2023-02-18T22:44:28.527Z,11.10
2023-02-18T22:46:58.645Z,12.50
2023-02-18T22:49:27.928Z,30.70
2023-02-18T22:51:57.456Z,8.00
2023-02-18T22:54:27.090Z,6.00
2023-02-18T22:56:56.178Z,5.50
2023-02-18T22:59:25.289Z,4.40
2023-02-18T23:01:54.360Z,8.00
2023-02-18T23:04:23.257Z,7.00
2023-02-18T23:06:52.506Z,6.30
2023-02-18T23:09:25.008Z,9.00
2023-02-18T23:11:57.707Z,7.10
2023-02-18T23:14:28.818Z,8.80
2023-02-18T23:17:18.160Z,7.50
2023-02-18T23:19:51.229Z,8.00
2023-02-18T23:22:30.887Z,19.80
2023-02-18T23:25:02.351Z,7.70
2023-02-18T23:27:32.136Z,6.00
2023-02-18T23:30:00.847Z,12.60
2023-02-18T23:32:31.374Z,9.10
2023-02-18T23:35:00.326Z,6.80
2023-02-18T23:37:47.930Z,5.90
2023-02-18T23:40:18.227Z,22.90
2023-02-18T23:42:47.106Z,15.60
2023-02-18T23:45:16.092Z,5.60
2023-02-18T23:47:44.985Z,9.50
2023-02-18T23:50:17.735Z,7.50
2023-02-18T23:52:49.479Z,9.90
2023-02-18T23:55:18.518Z,6.00
2023-02-18T23:57:47.485Z,6.20
